createdAt,value
2018-09-21T00:00:41.753Z,70.48
2018-09-21T00:03:11.732Z,70.73
2018-09-21T00:05:40.141Z,71.34
2018-09-21T00:08:08.733Z,71.34
2018-09-21T00:10:37.155Z,71.02
2018-09-21T00:13:05.653Z,71.34
2018-09-21T00:15:34.089Z,70.88
2018-09-21T00:18:02.513Z,71.44
2018-09-21T00:20:30.942Z,71.16
2018-09-21T00:22:59.369Z,70.95
2018-09-21T00:25:27.766Z,70.85
2018-09-21T00:27:56.189Z,71.16
2018-09-21T00:30:24.830Z,70.59
2018-09-21T00:32:53.281Z,71.37
2018-09-21T00:35:21.695Z,70.79
2018-09-21T00:37:50.258Z,70.41
2018-09-21T00:40:18.708Z,71.35
2018-09-21T00:42:47.113Z,69.89
2018-09-21T00:45:16.645Z,71.12
2018-09-21T00:47:45.201Z,71.15
2018-09-21T00:50:13.622Z,72.59
2018-09-21T00:52:42.029Z,72.57
2018-09-21T00:55:10.475Z,72.74
2018-09-21T00:57:38.914Z,72.41
2018-09-21T01:00:07.493Z,72.26
2018-09-21T01:02:36.006Z,73.00
2018-09-21T01:05:04.504Z,72.61
2018-09-21T01:07:32.926Z,73.01
2018-09-21T01:10:01.345Z,73.26
2018-09-21T01:12:29.742Z,73.47
2018-09-21T01:14:58.141Z,73.38
2018-09-21T01:17:26.586Z,73.60
2018-09-21T01:19:55.026Z,73.59
2018-09-21T01:22:23.492Z,73.95
2018-09-21T01:24:51.922Z,74.12
2018-09-21T01:27:20.359Z,74.30
2018-09-21T01:29:48.768Z,74.81
2018-09-21T01:32:17.174Z,75.39
2018-09-21T01:34:45.602Z,75.14
2018-09-21T01:37:13.998Z,74.96
2018-09-21T01:39:42.425Z,74.48
2018-09-21T01:42:10.809Z,73.42
2018-09-21T01:44:39.322Z,72.04
2018-09-21T01:47:07.856Z,71.45
2018-09-21T01:49:36.288Z,70.85
2018-09-21T01:52:04.742Z,70.23
2018-09-21T01:54:33.182Z,70.62
2018-09-21T01:57:01.635Z,70.24
2018-09-21T01:59:30.053Z,69.78
2018-09-21T02:01:58.510Z,69.04
2018-09-21T02:04:32.051Z,68.49
2018-09-21T02:07:00.515Z,69.16
2018-09-21T02:09:29.069Z,68.75
2018-09-21T02:11:57.521Z,69.46
2018-09-21T02:14:25.972Z,68.61
2018-09-21T02:16:54.450Z,66.15
2018-09-21T02:19:23.129Z,65.65
2018-09-21T02:21:51.691Z,66.35
2018-09-21T02:24:20.742Z,66.91
2018-09-21T02:26:49.257Z,66.90
2018-09-21T02:29:17.725Z,67.18
2018-09-21T02:31:46.526Z,68.28
2018-09-21T02:34:15.040Z,68.39
2018-09-21T02:36:43.517Z,68.26
2018-09-21T02:39:12.030Z,69.99
2018-09-21T02:41:40.483Z,70.07
2018-09-21T02:44:08.945Z,69.87
2018-09-21T02:46:37.609Z,67.36
2018-09-21T02:49:06.164Z,67.69
2018-09-21T02:51:35.060Z,66.10
2018-09-21T02:54:03.544Z,65.07
2018-09-21T02:56:32.003Z,64.22
2018-09-21T02:59:00.498Z,63.97
2018-09-21T03:01:28.921Z,62.58
2018-09-21T03:03:57.379Z,62.81
2018-09-21T03:06:25.829Z,62.19
2018-09-21T03:08:54.288Z,61.79
2018-09-21T03:13:54.162Z,61.35
2018-09-21T03:16:22.614Z,61.63
2018-09-21T03:18:51.033Z,60.89
2018-09-21T03:21:19.454Z,60.95
2018-09-21T03:23:47.877Z,60.58
2018-09-21T03:26:16.274Z,60.78
2018-09-21T03:28:44.676Z,60.48
2018-09-21T03:31:13.094Z,60.56
2018-09-21T03:33:41.495Z,60.76
2018-09-21T03:36:10.354Z,60.69
2018-09-21T03:38:38.761Z,60.58
2018-09-21T03:41:07.417Z,60.96
2018-09-21T03:43:35.853Z,60.86
2018-09-21T03:46:04.273Z,60.86
2018-09-21T03:48:33.179Z,61.28
2018-09-21T03:51:01.590Z,61.45
2018-09-21T03:53:30.070Z,61.63
2018-09-21T03:55:58.625Z,62.29
2018-09-21T03:58:27.360Z,62.25
2018-09-21T04:00:56.006Z,62.78
2018-09-21T04:03:24.566Z,63.02
2018-09-21T04:05:53.228Z,63.34
2018-09-21T04:08:21.673Z,64.25
2018-09-21T04:10:50.130Z,64.17
2018-09-21T04:13:18.595Z,64.62
2018-09-21T04:15:47.100Z,64.85
2018-09-21T04:18:15.876Z,65.40
2018-09-21T04:20:44.318Z,65.59
2018-09-21T04:23:12.784Z,65.98
2018-09-21T04:25:41.158Z,66.17
2018-09-21T04:28:09.584Z,66.40
2018-09-21T04:30:38.031Z,66.71
2018-09-21T04:33:06.450Z,67.09
2018-09-21T04:35:34.877Z,67.08
2018-09-21T04:38:03.305Z,67.25
2018-09-21T04:40:31.714Z,67.19
2018-09-21T04:43:00.131Z,67.83
2018-09-21T04:45:28.569Z,67.84
2018-09-21T04:47:56.994Z,68.21
2018-09-21T04:50:25.401Z,68.33
2018-09-21T04:52:53.974Z,68.20
2018-09-21T04:55:22.441Z,68.70
2018-09-21T04:57:50.872Z,68.61
2018-09-21T05:00:19.491Z,69.01
2018-09-21T05:02:47.909Z,68.80
2018-09-21T05:05:16.349Z,69.32
2018-09-21T05:07:44.774Z,69.30
2018-09-21T05:10:13.269Z,69.37
2018-09-21T05:12:41.686Z,69.38
2018-09-21T05:15:10.133Z,69.57
2018-09-21T05:17:38.607Z,69.79
2018-09-21T05:20:07.085Z,69.95
2018-09-21T05:22:35.617Z,70.11
2018-09-21T05:25:04.087Z,70.54
2018-09-21T05:27:32.556Z,70.50
2018-09-21T05:30:00.989Z,71.20
2018-09-21T05:32:29.425Z,70.81
2018-09-21T05:34:57.859Z,71.15
2018-09-21T05:37:26.310Z,70.99
2018-09-21T05:39:54.730Z,70.90
2018-09-21T05:42:23.533Z,70.81
2018-09-21T05:44:51.990Z,71.52
2018-09-21T05:47:20.460Z,71.53
2018-09-21T05:49:49.990Z,71.64
2018-09-21T05:52:18.437Z,72.11
2018-09-21T05:54:46.840Z,72.17
2018-09-21T05:57:15.380Z,72.27
2018-09-21T05:59:44.101Z,71.96
2018-09-21T06:02:12.868Z,72.54
2018-09-21T06:04:41.236Z,72.52
2018-09-21T06:07:09.846Z,72.69
2018-09-21T06:09:38.335Z,72.75
2018-09-21T06:12:06.865Z,73.04
2018-09-21T06:14:35.368Z,73.13
2018-09-21T06:17:04.068Z,72.75
2018-09-21T06:19:32.698Z,72.79
2018-09-21T06:22:01.359Z,72.88
2018-09-21T06:24:29.946Z,73.00
2018-09-21T06:26:58.533Z,72.72
2018-09-21T06:29:27.401Z,72.78
2018-09-21T06:31:56.082Z,72.67
2018-09-21T06:34:24.465Z,71.85
2018-09-21T06:36:52.915Z,71.68
2018-09-21T06:39:21.418Z,71.33
2018-09-21T06:41:49.829Z,71.07
2018-09-21T06:44:19.058Z,70.59
2018-09-21T06:46:47.637Z,70.02
2018-09-21T06:49:16.165Z,68.01
2018-09-21T06:51:44.817Z,67.15
2018-09-21T06:54:13.375Z,67.46
2018-09-21T06:56:41.974Z,66.67
2018-09-21T06:59:10.437Z,66.05
2018-09-21T07:01:38.897Z,65.65
2018-09-21T07:04:07.625Z,65.25
2018-09-21T07:06:36.110Z,65.25
2018-09-21T07:09:06.537Z,64.25
2018-09-21T07:11:34.930Z,64.07
2018-09-21T07:14:03.317Z,63.77
2018-09-21T07:16:31.774Z,62.52
2018-09-21T07:19:00.174Z,61.75
2018-09-21T07:21:30.115Z,60.21
2018-09-21T07:23:58.750Z,59.91
2018-09-21T07:26:27.210Z,59.93
2018-09-21T07:28:55.701Z,59.66
2018-09-21T07:31:24.391Z,59.11
2018-09-21T07:33:52.925Z,59.48
2018-09-21T07:36:21.345Z,59.20
2018-09-21T07:38:49.789Z,59.15
2018-09-21T07:41:18.326Z,59.71
2018-09-21T07:43:46.887Z,59.52
2018-09-21T07:46:15.347Z,59.76
2018-09-21T07:48:43.841Z,59.99
2018-09-21T07:51:12.290Z,59.94
2018-09-21T07:53:40.745Z,59.98
2018-09-21T07:56:09.214Z,60.68
2018-09-21T07:58:38.550Z,60.01
2018-09-21T08:01:07.601Z,60.24
2018-09-21T08:03:36.620Z,60.79
2018-09-21T08:06:05.215Z,60.29
2018-09-21T08:08:33.762Z,60.23
2018-09-21T08:11:02.254Z,60.22
2018-09-21T08:13:30.861Z,60.39
2018-09-21T08:15:59.375Z,60.68
2018-09-21T08:18:27.874Z,60.14
2018-09-21T08:20:56.674Z,60.29
2018-09-21T08:23:25.089Z,59.84
2018-09-21T08:25:53.486Z,59.25
2018-09-21T08:28:21.894Z,59.41
2018-09-21T08:30:50.285Z,59.41
2018-09-21T08:33:18.752Z,59.82
2018-09-21T08:35:47.089Z,60.44
2018-09-21T08:38:15.501Z,61.02
2018-09-21T08:40:44.022Z,61.73
2018-09-21T08:43:12.481Z,62.08
2018-09-21T08:45:40.882Z,62.53
2018-09-21T08:48:09.298Z,62.87
2018-09-21T08:50:37.717Z,63.35
2018-09-21T08:53:06.260Z,63.55
2018-09-21T08:55:34.650Z,64.17
2018-09-21T08:58:03.441Z,64.61
2018-09-21T09:00:31.838Z,65.17
2018-09-21T09:03:00.396Z,65.96
2018-09-21T09:05:28.832Z,66.93
2018-09-21T09:07:57.308Z,70.77
2018-09-21T09:10:25.764Z,87.01
2018-09-21T09:12:54.215Z,100.00
2018-09-21T09:15:22.651Z,100.00
2018-09-21T09:17:51.052Z,100.00
2018-09-21T09:20:19.502Z,100.00
2018-09-21T09:22:48.018Z,100.00
2018-09-21T09:25:16.434Z,100.00
2018-09-21T09:27:45.267Z,100.00
2018-09-21T09:30:13.730Z,100.00
2018-09-21T09:32:42.292Z,100.00
2018-09-21T09:35:11.585Z,100.00
2018-09-21T09:37:40.030Z,100.00
2018-09-21T09:40:08.469Z,100.00
2018-09-21T09:42:36.925Z,100.00
2018-09-21T09:45:05.381Z,100.00
2018-09-21T09:47:33.840Z,100.00
2018-09-21T09:50:02.343Z,100.00
2018-09-21T09:52:30.765Z,100.00
2018-09-21T09:54:59.142Z,100.00
2018-09-21T09:57:27.602Z,100.00
2018-09-21T09:59:56.002Z,100.00
2018-09-21T10:02:24.425Z,100.00
2018-09-21T10:04:52.852Z,100.00
2018-09-21T10:07:21.317Z,98.40
2018-09-21T10:09:49.717Z,99.17
2018-09-21T10:12:18.104Z,95.62
2018-09-21T10:14:46.572Z,94.33
2018-09-21T10:17:15.035Z,92.60
2018-09-21T10:19:43.893Z,92.11
2018-09-21T10:22:12.498Z,91.73
2018-09-21T10:24:41.005Z,93.59
2018-09-21T10:27:09.520Z,91.44
2018-09-21T10:29:37.965Z,89.18
2018-09-21T10:32:06.341Z,86.24
2018-09-21T10:34:34.791Z,86.98
2018-09-21T10:37:03.290Z,87.10
2018-09-21T10:39:31.653Z,86.55
2018-09-21T10:42:00.059Z,86.85
2018-09-21T10:44:28.487Z,84.66
2018-09-21T10:46:56.889Z,85.12
2018-09-21T10:49:25.314Z,83.88
2018-09-21T10:51:53.766Z,82.64
2018-09-21T10:54:22.177Z,83.12
2018-09-21T10:56:50.571Z,82.40
2018-09-21T10:59:18.977Z,82.40
2018-09-21T11:01:47.351Z,82.91
2018-09-21T11:04:15.808Z,83.64
2018-09-21T11:06:44.230Z,84.76
2018-09-21T11:09:12.701Z,84.25
2018-09-21T11:11:41.507Z,83.76
2018-09-21T11:14:09.965Z,83.13
2018-09-21T11:16:38.365Z,81.60
2018-09-21T11:19:06.775Z,80.10
2018-09-21T11:21:35.234Z,78.84
2018-09-21T11:24:03.721Z,77.75
2018-09-21T11:26:32.119Z,77.71
2018-09-21T11:29:00.545Z,78.52
2018-09-21T11:31:28.949Z,78.13
2018-09-21T11:33:57.389Z,78.81
2018-09-21T11:36:25.807Z,77.28
2018-09-21T11:38:54.254Z,77.54
2018-09-21T11:41:22.637Z,76.73
2018-09-21T11:43:51.080Z,76.36
2018-09-21T11:46:19.573Z,76.75
2018-09-21T11:48:48.015Z,75.82
2018-09-21T11:51:16.459Z,76.66
2018-09-21T11:53:44.910Z,76.51
2018-09-21T11:56:13.328Z,74.70
2018-09-21T11:58:41.719Z,73.83
2018-09-21T12:01:10.101Z,74.75
2018-09-21T12:03:38.518Z,72.33
2018-09-21T12:06:07.530Z,71.48
2018-09-21T12:08:37.690Z,71.09
2018-09-21T12:11:06.267Z,71.93
2018-09-21T12:13:35.209Z,72.30
2018-09-21T12:16:03.695Z,72.20
2018-09-21T12:18:32.100Z,73.70
2018-09-21T12:21:00.531Z,73.52
2018-09-21T12:23:28.925Z,73.76
2018-09-21T12:25:57.337Z,75.46
2018-09-21T12:28:25.794Z,75.68
2018-09-21T12:30:54.252Z,72.00
2018-09-21T12:33:22.650Z,65.12
2018-09-21T12:35:51.236Z,62.33
2018-09-21T12:38:19.707Z,63.04
2018-09-21T12:40:48.168Z,62.46
2018-09-21T12:43:16.594Z,61.24
2018-09-21T12:45:45.001Z,62.19
2018-09-21T12:48:13.393Z,61.77
2018-09-21T12:50:41.884Z,61.34
2018-09-21T12:53:10.347Z,62.04
2018-09-21T12:55:38.905Z,63.20
2018-09-21T12:58:07.522Z,63.33
2018-09-21T13:00:40.931Z,61.92
2018-09-21T13:03:09.372Z,62.21
2018-09-21T13:05:37.818Z,64.03
2018-09-21T13:08:06.270Z,62.69
2018-09-21T13:10:34.729Z,62.76
2018-09-21T13:13:03.130Z,63.81
2018-09-21T13:15:31.544Z,62.94
2018-09-21T13:17:59.945Z,63.85
2018-09-21T13:20:28.418Z,63.08
2018-09-21T13:22:56.789Z,63.82
2018-09-21T13:25:25.173Z,64.30
2018-09-21T13:27:53.562Z,63.13
2018-09-21T13:30:21.963Z,63.48
2018-09-21T13:32:50.334Z,64.21
2018-09-21T13:35:18.785Z,63.43
2018-09-21T13:37:47.174Z,64.04
2018-09-21T13:40:15.619Z,64.97
2018-09-21T13:42:44.095Z,63.92
2018-09-21T13:45:12.533Z,66.10
2018-09-21T13:47:40.926Z,66.69
2018-09-21T13:50:09.381Z,66.23
2018-09-21T13:52:37.798Z,66.67
2018-09-21T13:55:06.221Z,65.62
2018-09-21T13:57:34.618Z,65.66
2018-09-21T14:00:03.069Z,66.72
2018-09-21T14:02:31.457Z,64.46
2018-09-21T14:04:59.914Z,64.77
2018-09-21T14:07:28.317Z,65.62
2018-09-21T14:09:56.772Z,63.59
2018-09-21T14:12:25.174Z,61.73
2018-09-21T14:14:53.569Z,60.65
2018-09-21T14:17:21.992Z,59.51
2018-09-21T14:19:50.406Z,58.03
2018-09-21T14:22:18.851Z,57.67
2018-09-21T14:24:47.354Z,57.74
2018-09-21T14:27:15.780Z,57.88
2018-09-21T14:29:44.174Z,58.57
2018-09-21T14:32:12.581Z,57.80
2018-09-21T14:34:40.987Z,56.81
2018-09-21T14:37:09.384Z,54.83
2018-09-21T14:39:37.822Z,54.64
2018-09-21T14:42:06.307Z,52.78
2018-09-21T14:44:34.720Z,48.17
2018-09-21T14:47:03.158Z,45.78
2018-09-21T14:49:31.542Z,45.11
2018-09-21T14:51:59.938Z,46.25
2018-09-21T14:54:28.344Z,48.03
2018-09-21T14:56:56.776Z,48.42
2018-09-21T14:59:25.174Z,49.17
2018-09-21T15:01:53.573Z,51.50
2018-09-21T15:04:21.958Z,53.06
2018-09-21T15:06:50.393Z,54.37
2018-09-21T15:09:18.861Z,55.76
2018-09-21T15:11:47.317Z,56.40
2018-09-21T15:14:15.856Z,56.02
2018-09-21T15:16:44.283Z,56.40
2018-09-21T15:19:12.689Z,55.54
2018-09-21T15:21:41.430Z,53.85
2018-09-21T15:24:09.873Z,50.64
2018-09-21T15:26:38.282Z,48.59
2018-09-21T15:29:06.753Z,47.03
2018-09-21T15:31:35.166Z,46.92
2018-09-21T15:34:03.599Z,46.66
2018-09-21T15:36:31.982Z,46.15
2018-09-21T15:39:00.405Z,46.57
2018-09-21T15:41:28.805Z,46.61
2018-09-21T15:43:57.267Z,46.10
2018-09-21T15:46:25.725Z,47.31
2018-09-21T15:48:54.138Z,46.80
2018-09-21T15:51:22.594Z,46.72
2018-09-21T15:53:50.976Z,47.22
2018-09-21T15:56:19.397Z,47.03
2018-09-21T15:58:48.015Z,48.04
2018-09-21T16:01:16.422Z,47.88
2018-09-21T16:03:44.968Z,48.69
2018-09-21T16:06:13.429Z,48.88
2018-09-21T16:08:41.922Z,49.04
2018-09-21T16:11:10.344Z,49.32
2018-09-21T16:13:38.712Z,48.17
2018-09-21T16:16:07.225Z,47.37
2018-09-21T16:18:35.686Z,48.04
2018-09-21T16:21:04.091Z,48.09
2018-09-21T16:23:32.503Z,48.70
2018-09-21T16:26:00.905Z,47.99
2018-09-21T16:28:29.353Z,47.57
2018-09-21T16:30:57.801Z,47.53
2018-09-21T16:33:26.234Z,47.99
2018-09-21T16:35:54.805Z,47.82
2018-09-21T16:38:23.201Z,48.96
2018-09-21T16:40:51.581Z,48.77
2018-09-21T16:43:20.138Z,49.43
2018-09-21T16:45:48.836Z,49.81
2018-09-21T16:48:18.419Z,49.74
2018-09-21T16:50:46.878Z,50.47
2018-09-21T16:53:15.401Z,50.70
2018-09-21T16:55:44.005Z,50.84
2018-09-21T16:58:12.593Z,51.77
2018-09-21T17:00:41.096Z,51.33
2018-09-21T17:03:09.669Z,51.47
2018-09-21T17:05:38.112Z,52.75
2018-09-21T17:08:06.582Z,52.68
2018-09-21T17:10:35.073Z,52.86
2018-09-21T17:13:03.553Z,53.74
2018-09-21T17:15:31.958Z,53.32
2018-09-21T17:18:00.355Z,54.39
2018-09-21T17:20:28.852Z,55.13
2018-09-21T17:22:57.321Z,55.76
2018-09-21T17:25:25.727Z,55.84
2018-09-21T17:27:54.130Z,56.55
2018-09-21T17:30:22.517Z,56.74
2018-09-21T17:32:50.918Z,57.41
2018-09-21T17:35:19.351Z,57.92
2018-09-21T17:37:47.840Z,58.04
2018-09-21T17:40:16.246Z,58.87
2018-09-21T17:42:44.715Z,59.69
2018-09-21T17:45:13.117Z,59.88
2018-09-21T17:47:41.825Z,60.20
2018-09-21T17:50:10.230Z,60.10
2018-09-21T17:52:38.641Z,60.51
2018-09-21T17:55:07.050Z,60.56
2018-09-21T17:57:35.849Z,60.86
2018-09-21T18:00:04.537Z,60.87
2018-09-21T18:02:33.687Z,60.98
2018-09-21T18:05:03.282Z,61.11
2018-09-21T18:07:31.834Z,60.58
2018-09-21T18:10:00.379Z,60.28
2018-09-21T18:12:28.829Z,60.23
2018-09-21T18:14:57.303Z,60.20
2018-09-21T18:17:25.845Z,60.22
2018-09-21T18:19:56.379Z,59.34
2018-09-21T18:22:24.868Z,59.44
2018-09-21T18:24:53.321Z,59.71
2018-09-21T18:27:21.879Z,59.14
2018-09-21T18:29:50.406Z,58.39
2018-09-21T18:32:19.507Z,58.38
2018-09-21T18:34:48.540Z,58.14
2018-09-21T18:37:17.170Z,57.84
2018-09-21T18:39:46.135Z,57.76
2018-09-21T18:42:14.538Z,58.02
2018-09-21T18:44:43.098Z,57.80
2018-09-21T18:47:11.565Z,58.17
2018-09-21T18:49:40.043Z,57.22
2018-09-21T18:52:08.513Z,57.25
2018-09-21T18:54:37.006Z,57.04
2018-09-21T18:57:08.641Z,57.17
2018-09-21T18:59:37.131Z,57.78
2018-09-21T19:02:05.706Z,57.21
2018-09-21T19:04:34.234Z,56.45
2018-09-21T19:07:02.767Z,56.93
2018-09-21T19:09:31.305Z,57.16
2018-09-21T19:11:59.785Z,57.57
2018-09-21T19:14:30.147Z,57.17
2018-09-21T19:16:58.547Z,57.60
2018-09-21T19:19:26.965Z,57.67
2018-09-21T19:21:55.373Z,57.63
2018-09-21T19:24:23.881Z,57.63
2018-09-21T19:26:55.516Z,58.02
2018-09-21T19:29:24.035Z,58.47
2018-09-21T19:31:52.476Z,58.51
2018-09-21T19:34:21.514Z,58.55
2018-09-21T19:36:50.043Z,59.15
2018-09-21T19:39:18.545Z,58.95
2018-09-21T19:41:47.220Z,59.17
2018-09-21T19:44:15.657Z,60.02
2018-09-21T19:46:45.322Z,60.17
2018-09-21T19:49:13.741Z,60.86
2018-09-21T19:51:42.192Z,61.08
2018-09-21T19:54:10.657Z,61.39
2018-09-21T19:56:39.124Z,61.01
2018-09-21T19:59:07.640Z,61.00
2018-09-21T20:01:37.656Z,61.07
2018-09-21T20:04:06.305Z,61.67
2018-09-21T20:06:35.161Z,61.75
2018-09-21T20:09:05.084Z,61.84
2018-09-21T20:11:33.896Z,61.88
2018-09-21T20:14:06.657Z,61.73
2018-09-21T20:16:35.302Z,62.26
2018-09-21T20:19:03.751Z,62.04
2018-09-21T20:21:37.714Z,62.26
2018-09-21T20:24:06.650Z,62.22
2018-09-21T20:26:35.131Z,62.28
2018-09-21T20:29:06.705Z,62.26
2018-09-21T20:32:47.260Z,62.08
2018-09-21T20:35:15.765Z,62.62
2018-09-21T20:37:44.250Z,62.64
2018-09-21T20:40:12.765Z,63.13
2018-09-21T20:42:41.239Z,63.51
2018-09-21T20:45:10.166Z,63.21
2018-09-21T20:47:38.798Z,62.41
2018-09-21T20:50:07.379Z,62.58
2018-09-21T20:52:35.913Z,62.78
2018-09-21T20:55:05.361Z,63.39
2018-09-21T20:57:34.018Z,62.72
2018-09-21T21:00:02.503Z,63.30
2018-09-21T21:02:31.217Z,63.49
2018-09-21T21:05:00.097Z,63.75
2018-09-21T21:07:28.537Z,63.63
2018-09-21T21:09:57.065Z,64.23
2018-09-21T21:12:25.489Z,64.43
2018-09-21T21:14:54.288Z,63.76
2018-09-21T21:17:22.680Z,63.94
2018-09-21T21:19:51.144Z,64.53
2018-09-21T21:22:19.615Z,64.70
2018-09-21T21:24:48.101Z,64.08
2018-09-21T21:27:16.729Z,64.10
2018-09-21T21:29:45.399Z,64.24
2018-09-21T21:32:14.138Z,64.65
2018-09-21T21:34:43.570Z,65.37
2018-09-21T21:37:11.992Z,65.90
2018-09-21T21:39:41.317Z,65.59
2018-09-21T21:42:09.800Z,65.23
2018-09-21T21:44:38.758Z,65.62
2018-09-21T21:47:08.326Z,65.13
2018-09-21T21:49:36.936Z,65.80
2018-09-21T21:52:05.393Z,65.75
2018-09-21T21:54:34.057Z,65.23
2018-09-21T21:57:02.457Z,65.90
2018-09-21T21:59:30.945Z,66.28
2018-09-21T22:01:59.852Z,66.56
2018-09-21T22:04:28.441Z,66.06
2018-09-21T22:06:56.871Z,67.08
2018-09-21T22:09:25.324Z,66.88
2018-09-21T22:11:59.076Z,66.52
2018-09-21T22:14:27.481Z,66.48
2018-09-21T22:16:55.939Z,66.88
2018-09-21T22:19:24.412Z,66.79
2018-09-21T22:21:52.850Z,66.92
2018-09-21T22:24:21.261Z,67.12
2018-09-21T22:26:49.802Z,67.22
2018-09-21T22:29:18.221Z,67.15
2018-09-21T22:31:46.661Z,67.55
2018-09-21T22:34:15.153Z,67.94
2018-09-21T22:36:43.641Z,67.94
2018-09-21T22:39:12.116Z,68.11
2018-09-21T22:41:40.696Z,68.68
2018-09-21T22:44:09.204Z,68.83
2018-09-21T22:46:37.721Z,68.84
2018-09-21T22:49:23.689Z,68.71
2018-09-21T22:51:52.225Z,68.82
2018-09-21T22:54:20.668Z,69.24
2018-09-21T22:56:49.205Z,69.17
2018-09-21T22:59:17.794Z,68.65
2018-09-21T23:01:46.361Z,69.25
2018-09-21T23:04:14.882Z,69.81
2018-09-21T23:06:43.481Z,70.35
2018-09-21T23:09:13.616Z,70.01
2018-09-21T23:11:42.983Z,70.65
2018-09-21T23:14:11.814Z,70.18
2018-09-21T23:16:40.611Z,70.16
2018-09-21T23:19:09.469Z,70.91
2018-09-21T23:21:37.954Z,70.97
2018-09-21T23:24:06.399Z,71.40
2018-09-21T23:26:35.608Z,71.65
2018-09-21T23:29:04.229Z,71.52
2018-09-21T23:31:32.859Z,71.93
2018-09-21T23:34:01.353Z,72.52
2018-09-21T23:36:29.873Z,72.88
2018-09-21T23:38:58.421Z,72.78
2018-09-21T23:41:26.955Z,73.11
2018-09-21T23:43:55.354Z,72.86
2018-09-21T23:46:23.754Z,73.49
2018-09-21T23:48:52.213Z,73.36
2018-09-21T23:51:20.629Z,73.02
2018-09-21T23:53:49.017Z,73.08
2018-09-21T23:56:17.523Z,73.47
2018-09-21T23:58:45.937Z,72.70
